createdAt,value
2018-08-19T00:00:50.444Z,15.62
2018-08-19T00:01:50.434Z,15.55
2018-08-19T00:02:50.427Z,15.63
2018-08-19T00:03:50.422Z,15.6
2018-08-19T00:04:50.156Z,15.55
2018-08-19T00:05:50.413Z,15.55
2018-08-19T00:06:50.403Z,15.6
2018-08-19T00:07:50.398Z,15.53
2018-08-19T00:08:50.394Z,15.52
2018-08-19T00:09:50.132Z,15.52
2018-08-19T00:10:50.401Z,15.6
2018-08-19T00:11:50.385Z,15.53
2018-08-19T00:12:50.373Z,15.49
2018-08-19T00:13:50.115Z,15.51
2018-08-19T00:14:50.110Z,15.55
2018-08-19T00:15:50.364Z,15.53
2018-08-19T00:16:49.844Z,15.49
2018-08-19T00:17:50.352Z,15.43
2018-08-19T00:18:50.352Z,15.53
2018-08-19T00:19:50.398Z,15.41
2018-08-19T00:20:50.335Z,15.41
2018-08-19T00:21:50.565Z,15.45
2018-08-19T00:22:50.330Z,15.43
2018-08-19T00:23:50.376Z,15.45
2018-08-19T00:24:50.318Z,15.44
2018-08-19T00:25:50.315Z,15.44
2018-08-19T00:26:50.053Z,15.43
2018-08-19T00:27:50.303Z,15.43
2018-08-19T00:28:50.297Z,15.44
2018-08-19T00:29:50.294Z,15.41
2018-08-19T00:30:50.289Z,15.47
2018-08-19T00:31:50.282Z,15.41
2018-08-19T00:32:50.034Z,15.47
2018-08-19T00:33:50.277Z,15.53
2018-08-19T00:34:49.757Z,15.49
2018-08-19T00:35:50.007Z,15.43
2018-08-19T00:36:50.005Z,15.58
2018-08-19T00:37:49.995Z,15.41
2018-08-19T00:38:50.248Z,15.53
2018-08-19T00:39:50.251Z,15.41
2018-08-19T00:40:50.249Z,15.43
2018-08-19T00:41:50.236Z,15.44
2018-08-19T00:42:50.229Z,15.44
2018-08-19T00:43:50.226Z,15.37
2018-08-19T00:44:50.229Z,15.4
2018-08-19T00:45:50.215Z,15.34
2018-08-19T00:46:50.212Z,15.44
2018-08-19T00:47:50.206Z,15.33
2018-08-19T00:48:50.200Z,15.35
2018-08-19T00:49:49.938Z,15.31
2018-08-19T00:50:50.193Z,15.35
2018-08-19T00:51:50.184Z,15.31
2018-08-19T00:52:49.924Z,15.33
2018-08-19T00:53:49.919Z,15.41
2018-08-19T00:54:50.171Z,15.33
2018-08-19T00:55:50.172Z,15.31
2018-08-19T00:56:50.161Z,15.27
2018-08-19T00:57:50.156Z,15.26
2018-08-19T00:58:49.895Z,15.31
2018-08-19T00:59:50.148Z,15.33
2018-08-19T01:00:50.146Z,15.27
2018-08-19T01:01:49.883Z,15.23
2018-08-19T01:02:50.138Z,15.25
2018-08-19T01:03:49.869Z,15.2
2018-08-19T01:04:50.130Z,15.3
2018-08-19T01:05:50.116Z,15.2
2018-08-19T01:06:49.856Z,15.31
2018-08-19T01:07:49.866Z,15.31
2018-08-19T01:08:49.850Z,15.31
2018-08-19T01:09:50.107Z,15.25
2018-08-19T01:10:49.835Z,15.25
2018-08-19T01:11:49.838Z,15.2
2018-08-19T01:12:50.087Z,15.2
2018-08-19T01:13:49.822Z,15.25
2018-08-19T01:14:50.074Z,15.12
2018-08-19T01:15:50.067Z,15.16
2018-08-19T01:16:50.067Z,15.25
2018-08-19T01:17:49.799Z,15.15
2018-08-19T01:18:50.054Z,15.13
2018-08-19T01:19:49.793Z,15.08
2018-08-19T01:20:50.040Z,15.15
2018-08-19T01:21:49.784Z,15.15
2018-08-19T01:22:49.790Z,15.05
2018-08-19T01:23:50.028Z,15.13
2018-08-19T01:24:50.031Z,15.08
2018-08-19T01:25:49.762Z,15.15
2018-08-19T01:26:49.506Z,15.05
2018-08-19T01:27:50.008Z,15.02
2018-08-19T01:28:50.047Z,15.08
2018-08-19T01:29:50.003Z,15.1
2018-08-19T01:30:49.994Z,15.05
2018-08-19T01:31:49.986Z,14.98
2018-08-19T01:32:49.984Z,15
2018-08-19T01:33:49.718Z,15.07
2018-08-19T01:34:49.991Z,15.04
2018-08-19T01:35:49.710Z,15.1
2018-08-19T01:36:49.712Z,15.08
2018-08-19T01:37:49.699Z,15.01
2018-08-19T01:38:49.694Z,15.04
2018-08-19T01:39:49.946Z,15.05
2018-08-19T01:40:49.947Z,15.05
2018-08-19T01:41:49.679Z,15.04
2018-08-19T01:42:49.678Z,15.05
2018-08-19T01:43:49.926Z,14.98
2018-08-19T01:44:49.930Z,15.04
2018-08-19T01:45:49.915Z,15.02
2018-08-19T01:46:49.395Z,15.04
2018-08-19T01:47:49.904Z,15.05
2018-08-19T01:48:49.901Z,15.01
2018-08-19T01:49:49.638Z,15
2018-08-19T01:50:49.903Z,15.01
2018-08-19T01:51:49.887Z,14.98
2018-08-19T01:52:49.888Z,14.95
2018-08-19T01:53:49.360Z,14.97
2018-08-19T01:54:49.611Z,14.97
2018-08-19T01:55:49.860Z,14.95
2018-08-19T01:56:49.859Z,15.01
2018-08-19T01:57:49.851Z,14.95
2018-08-19T01:58:49.849Z,14.98
2018-08-19T01:59:49.842Z,15
2018-08-19T02:00:49.836Z,14.93
2018-08-19T02:01:49.575Z,14.87
2018-08-19T02:02:49.571Z,14.9
2018-08-19T02:03:49.826Z,14.9
2018-08-19T02:04:49.560Z,15.02
2018-08-19T02:05:49.557Z,14.93
2018-08-19T02:06:49.810Z,14.93
2018-08-19T02:07:49.803Z,14.94
2018-08-19T02:08:49.538Z,15.01
2018-08-19T02:09:49.530Z,14.94
2018-08-19T02:10:49.528Z,14.93
2018-08-19T02:11:49.522Z,14.97
2018-08-19T02:12:49.260Z,14.94
2018-08-19T02:13:49.513Z,14.85
2018-08-19T02:14:49.763Z,14.95
2018-08-19T02:15:49.759Z,14.95
2018-08-19T02:16:49.751Z,14.9
2018-08-19T02:17:49.752Z,14.85
2018-08-19T02:18:49.740Z,14.82
2018-08-19T02:19:49.734Z,14.83
2018-08-19T02:20:50.107Z,14.86
2018-08-19T02:21:49.734Z,14.86
2018-08-19T02:22:49.723Z,14.79
2018-08-19T02:23:49.719Z,14.8
2018-08-19T02:24:49.709Z,14.77
2018-08-19T02:25:49.711Z,14.71
2018-08-19T02:26:49.699Z,14.69
2018-08-19T02:27:49.444Z,14.71
2018-08-19T02:28:49.433Z,14.79
2018-08-19T02:29:49.682Z,14.67
2018-08-19T02:30:49.674Z,14.66
2018-08-19T02:31:49.671Z,14.71
2018-08-19T02:32:49.669Z,14.69
2018-08-19T02:33:49.451Z,14.66
2018-08-19T02:34:49.667Z,14.69
2018-08-19T02:35:49.395Z,14.77
2018-08-19T02:36:49.391Z,14.75
2018-08-19T02:37:49.387Z,14.71
2018-08-19T02:38:49.641Z,14.61
2018-08-19T02:39:49.633Z,14.66
2018-08-19T02:40:49.371Z,14.64
2018-08-19T02:41:49.619Z,14.63
2018-08-19T02:42:49.354Z,14.63
2018-08-19T02:43:49.612Z,14.69
2018-08-19T02:44:49.607Z,14.69
2018-08-19T02:45:49.340Z,14.75
2018-08-19T02:46:49.593Z,14.69
2018-08-19T02:47:49.586Z,14.77
2018-08-19T02:48:49.580Z,14.69
2018-08-19T02:49:49.316Z,14.63
2018-08-19T02:50:49.577Z,14.77
2018-08-19T02:51:49.308Z,14.67
2018-08-19T02:52:49.558Z,14.75
2018-08-19T02:53:49.559Z,14.67
2018-08-19T02:54:49.545Z,14.74
2018-08-19T02:55:49.282Z,14.82
2018-08-19T02:56:49.540Z,14.8
2018-08-19T02:57:49.273Z,14.74
2018-08-19T02:58:49.267Z,14.83
2018-08-19T02:59:49.518Z,14.71
2018-08-19T03:00:49.520Z,14.8
2018-08-19T03:01:49.503Z,14.77
2018-08-19T03:02:48.991Z,14.69
2018-08-19T03:03:49.503Z,14.83
2018-08-19T03:04:49.234Z,14.82
2018-08-19T03:05:48.975Z,14.87
2018-08-19T03:06:49.224Z,14.9
2018-08-19T03:07:49.222Z,14.77
2018-08-19T03:08:49.215Z,14.8
2018-08-19T03:09:49.210Z,14.8
2018-08-19T03:10:49.460Z,14.89
2018-08-19T03:11:49.451Z,14.86
2018-08-19T03:12:49.464Z,14.83
2018-08-19T03:13:49.441Z,15
2018-08-19T03:14:49.433Z,14.95
2018-08-19T03:15:49.173Z,14.89
2018-08-19T03:16:49.167Z,14.89
2018-08-19T03:17:49.162Z,14.87
2018-08-19T03:18:49.154Z,14.87
2018-08-19T03:19:49.405Z,14.82
2018-08-19T03:20:48.886Z,14.8
2018-08-19T03:21:48.881Z,14.83
2018-08-19T03:22:49.135Z,14.8
2018-08-19T03:23:48.871Z,14.8
2018-08-19T03:24:49.122Z,14.85
2018-08-19T03:25:49.122Z,14.82
2018-08-19T03:26:49.363Z,14.86
2018-08-19T03:27:49.103Z,14.85
2018-08-19T03:28:48.842Z,14.8
2018-08-19T03:29:49.093Z,14.86
2018-08-19T03:30:48.834Z,14.87
2018-08-19T03:31:49.350Z,14.8
2018-08-19T03:32:49.092Z,14.7
2018-08-19T03:33:49.123Z,14.74
2018-08-19T03:34:49.329Z,14.71
2018-08-19T03:35:49.317Z,14.77
2018-08-19T03:36:48.802Z,14.7
2018-08-19T03:37:49.387Z,14.74
2018-08-19T03:38:49.302Z,14.74
2018-08-19T03:39:49.043Z,14.75
2018-08-19T03:40:49.032Z,14.64
2018-08-19T03:41:49.033Z,14.69
2018-08-19T03:42:49.021Z,14.69
2018-08-19T03:43:49.016Z,14.61
2018-08-19T03:44:49.010Z,14.63
2018-08-19T03:45:49.003Z,14.61
2018-08-19T03:46:49.253Z,14.61
2018-08-19T03:47:48.995Z,14.59
2018-08-19T03:48:48.986Z,14.61
2018-08-19T03:49:48.723Z,14.63
2018-08-19T03:50:49.228Z,14.63
2018-08-19T03:51:48.972Z,14.59
2018-08-19T03:52:49.222Z,14.57
2018-08-19T03:53:48.963Z,14.57
2018-08-19T03:54:49.212Z,14.59
2018-08-19T03:55:48.691Z,14.49
2018-08-19T03:56:48.943Z,14.48
2018-08-19T03:57:49.204Z,14.48
2018-08-19T03:58:48.932Z,14.61
2018-08-19T03:59:49.198Z,14.49
2018-08-19T04:00:48.938Z,14.59
2018-08-19T04:01:48.922Z,14.49
2018-08-19T04:02:49.167Z,14.48
2018-08-19T04:03:48.902Z,14.61
2018-08-19T04:04:49.176Z,14.56
2018-08-19T04:05:49.146Z,14.48
2018-08-19T04:06:49.145Z,14.52
2018-08-19T04:07:49.135Z,14.48
2018-08-19T04:08:49.130Z,14.52
2018-08-19T04:09:49.130Z,14.48
2018-08-19T04:10:49.118Z,14.49
2018-08-19T04:11:49.126Z,14.48
2018-08-19T04:12:48.854Z,14.51
2018-08-19T04:13:49.107Z,14.52
2018-08-19T04:14:49.098Z,14.51
2018-08-19T04:15:49.092Z,14.45
2018-08-19T04:16:49.085Z,14.6
2018-08-19T04:17:48.823Z,14.59
2018-08-19T04:18:49.077Z,14.63
2018-08-19T04:19:49.070Z,14.63
2018-08-19T04:20:48.551Z,14.7
2018-08-19T04:21:49.061Z,14.64
2018-08-19T04:22:49.068Z,14.67
2018-08-19T04:23:48.791Z,14.64
2018-08-19T04:24:48.525Z,14.66
2018-08-19T04:25:48.777Z,14.74
2018-08-19T04:26:49.039Z,14.77
2018-08-19T04:27:48.765Z,14.71
2018-08-19T04:28:49.039Z,14.77
2018-08-19T04:29:49.017Z,14.83
2018-08-19T04:30:49.012Z,14.83
2018-08-19T04:31:49.002Z,14.86
2018-08-19T04:32:48.998Z,14.8
2018-08-19T04:33:48.988Z,14.86
2018-08-19T04:34:48.989Z,14.95
2018-08-19T04:35:48.721Z,14.94
2018-08-19T04:36:48.979Z,14.94
2018-08-19T04:37:48.712Z,15
2018-08-19T04:38:48.972Z,14.98
2018-08-19T04:39:48.958Z,14.98
2018-08-19T04:40:48.696Z,15.05
2018-08-19T04:41:48.945Z,15.13
2018-08-19T04:42:48.942Z,15.13
2018-08-19T04:43:48.944Z,15.2
2018-08-19T04:44:48.928Z,15.22
2018-08-19T04:45:48.414Z,15.2
2018-08-19T04:46:48.669Z,15.3
2018-08-19T04:47:48.659Z,15.3
2018-08-19T04:48:48.915Z,15.3
2018-08-19T04:49:48.902Z,15.37
2018-08-19T04:50:48.896Z,15.44
2018-08-19T04:51:48.638Z,15.47
2018-08-19T04:52:48.371Z,15.45
2018-08-19T04:53:48.890Z,15.47
2018-08-19T04:54:48.629Z,15.53
2018-08-19T04:55:48.613Z,15.65
2018-08-19T04:56:48.623Z,15.62
2018-08-19T04:57:48.863Z,15.74
2018-08-19T04:58:48.599Z,15.7
2018-08-19T04:59:48.598Z,15.74
2018-08-19T05:00:48.846Z,15.73
2018-08-19T05:01:48.840Z,15.73
2018-08-19T05:02:48.582Z,15.89
2018-08-19T05:03:48.827Z,15.89
2018-08-19T05:04:48.830Z,15.99
2018-08-19T05:05:48.570Z,16
2018-08-19T05:06:48.821Z,16.06
2018-08-19T05:07:48.879Z,16.02
2018-08-19T05:08:48.549Z,16.18
2018-08-19T05:09:48.547Z,16.18
2018-08-19T05:10:48.538Z,16.3
2018-08-19T05:11:48.533Z,16.27
2018-08-19T05:12:48.529Z,16.26
2018-08-19T05:13:48.530Z,16.33
2018-08-19T05:14:48.521Z,16.3
2018-08-19T05:15:48.779Z,16.33
2018-08-19T05:16:48.764Z,16.4
2018-08-19T05:17:48.505Z,16.57
2018-08-19T05:18:48.501Z,16.47
2018-08-19T05:19:48.499Z,16.62
2018-08-19T05:20:48.494Z,16.65
2018-08-19T05:21:48.741Z,16.65
2018-08-19T05:22:48.745Z,16.81
2018-08-19T05:23:48.750Z,16.82
2018-08-19T05:24:48.477Z,16.91
2018-08-19T05:25:48.470Z,16.91
2018-08-19T05:26:48.474Z,16.94
2018-08-19T05:27:48.718Z,16.95
2018-08-19T05:28:48.714Z,17.02
2018-08-19T05:29:48.726Z,17.1
2018-08-19T05:30:48.705Z,17.02
2018-08-19T05:31:48.705Z,17
2018-08-19T05:32:48.694Z,17.05
2018-08-19T05:33:48.433Z,17.06
2018-08-19T05:34:48.691Z,17.1
2018-08-19T05:35:48.429Z,17.09
2018-08-19T05:36:48.163Z,17.07
2018-08-19T05:37:48.416Z,17.12
2018-08-19T05:38:48.735Z,17.07
2018-08-19T05:39:48.406Z,17.09
2018-08-19T05:40:48.406Z,17.1
2018-08-19T05:41:48.661Z,17.13
2018-08-19T05:42:48.394Z,17.15
2018-08-19T05:43:48.655Z,17.21
2018-08-19T05:44:48.394Z,17.27
2018-08-19T05:45:48.383Z,17.24
2018-08-19T05:46:48.649Z,17.36
2018-08-19T05:47:48.640Z,17.39
2018-08-19T05:48:48.637Z,17.5
2018-08-19T05:49:48.628Z,17.55
2018-08-19T05:50:48.624Z,17.52
2018-08-19T05:51:48.620Z,17.55
2018-08-19T05:52:48.615Z,17.62
2018-08-19T05:53:48.359Z,17.71
2018-08-19T05:54:48.357Z,17.74
2018-08-19T05:55:48.522Z,17.74
2018-08-19T05:56:48.601Z,17.81
2018-08-19T05:57:48.339Z,17.83
2018-08-19T05:58:48.590Z,17.88
2018-08-19T05:59:48.588Z,17.9
2018-08-19T06:00:48.333Z,17.98
2018-08-19T06:01:48.590Z,18.06
2018-08-19T06:02:48.582Z,18.02
2018-08-19T06:03:48.317Z,18.14
2018-08-19T06:04:48.568Z,18.16
2018-08-19T06:05:48.051Z,18.17
2018-08-19T06:06:48.313Z,18.2
2018-08-19T06:07:48.515Z,18.2
2018-08-19T06:08:48.557Z,18.24
2018-08-19T06:09:48.301Z,18.27
2018-08-19T06:10:48.550Z,18.38
2018-08-19T06:11:48.291Z,18.38
2018-08-19T06:12:48.557Z,18.42
2018-08-19T06:13:48.543Z,18.42
2018-08-19T06:14:48.281Z,18.5
2018-08-19T06:15:48.342Z,18.54
2018-08-19T06:16:48.529Z,18.66
2018-08-19T06:17:48.019Z,18.71
2018-08-19T06:18:48.275Z,18.72
2018-08-19T06:19:48.520Z,18.6
2018-08-19T06:20:48.261Z,18.63
2018-08-19T06:21:48.517Z,18.66
2018-08-19T06:22:48.523Z,18.6
2018-08-19T06:23:48.253Z,18.61
2018-08-19T06:24:48.792Z,18.68
2018-08-19T06:25:48.505Z,18.71
2018-08-19T06:26:48.499Z,18.72
2018-08-19T06:27:48.498Z,18.79
2018-08-19T06:28:48.491Z,18.78
2018-08-19T06:29:48.490Z,18.79
2018-08-19T06:30:48.492Z,18.87
2018-08-19T06:31:48.484Z,18.84
2018-08-19T06:32:48.497Z,18.89
2018-08-19T06:33:48.223Z,18.87
2018-08-19T06:34:48.579Z,18.97
2018-08-19T06:35:48.219Z,18.87
2018-08-19T06:36:48.226Z,19.02
2018-08-19T06:37:48.474Z,19.05
2018-08-19T06:38:48.468Z,18.96
2018-08-19T06:39:48.464Z,19.05
2018-08-19T06:40:48.207Z,18.99
2018-08-19T06:41:48.459Z,18.99
2018-08-19T06:42:48.460Z,19.07
2018-08-19T06:43:48.456Z,19.16
2018-08-19T06:44:48.453Z,19.16
2018-08-19T06:45:48.191Z,19.15
2018-08-19T06:46:48.448Z,19.28
2018-08-19T06:47:48.451Z,19.23
2018-08-19T06:48:48.451Z,19.34
2018-08-19T06:49:48.438Z,19.43
2018-08-19T06:50:48.436Z,19.53
2018-08-19T06:51:48.181Z,19.64
2018-08-19T06:52:48.432Z,19.89
2018-08-19T06:53:48.431Z,20.05
2018-08-19T06:54:48.443Z,20.34
2018-08-19T06:55:48.172Z,20.57
2018-08-19T06:56:48.422Z,20.91
2018-08-19T06:57:48.434Z,21.28
2018-08-19T06:58:48.417Z,21.61
2018-08-19T06:59:48.425Z,22.39
2018-08-19T07:00:48.420Z,23.1
2018-08-19T07:01:48.423Z,23.78
2018-08-19T07:02:48.417Z,24.4
2018-08-19T07:03:48.951Z,25
2018-08-19T07:04:48.409Z,25.34
2018-08-19T07:05:48.409Z,25.97
2018-08-19T07:06:48.413Z,26.38
2018-08-19T07:07:48.155Z,26.78
2018-08-19T07:08:48.410Z,27.04
2018-08-19T07:09:48.412Z,27.36
2018-08-19T07:10:48.414Z,27.57
2018-08-19T07:11:48.411Z,27.69
2018-08-19T07:12:48.328Z,27.94
2018-08-19T07:13:48.417Z,28.2
2018-08-19T07:14:48.416Z,28.45
2018-08-19T07:15:48.422Z,28.57
2018-08-19T07:16:48.424Z,28.79
2018-08-19T07:17:48.166Z,28.91
2018-08-19T07:18:48.333Z,29.14
2018-08-19T07:19:48.432Z,29.42
2018-08-19T07:20:48.431Z,29.61
2018-08-19T07:21:48.447Z,29.72
2018-08-19T07:22:48.443Z,29.76
2018-08-19T07:23:48.557Z,29.85
2018-08-19T07:24:48.449Z,29.98
2018-08-19T07:25:48.446Z,30.13
2018-08-19T07:26:48.449Z,30.4
2018-08-19T07:27:48.195Z,30.64
2018-08-19T07:28:48.460Z,30.86
2018-08-19T07:29:48.755Z,31.1
2018-08-19T07:30:48.467Z,31.26
2018-08-19T07:31:48.216Z,31.31
2018-08-19T07:32:48.480Z,31.1
2018-08-19T07:33:48.482Z,31.22
2018-08-19T07:34:48.228Z,31.3
2018-08-19T07:35:48.238Z,31.43
2018-08-19T07:36:48.619Z,31.41
2018-08-19T07:37:48.502Z,31.33
2018-08-19T07:38:48.501Z,31.4
2018-08-19T07:39:48.507Z,31.58
2018-08-19T07:40:48.514Z,31.87
2018-08-19T07:41:48.259Z,31.93
2018-08-19T07:42:48.521Z,31.88
2018-08-19T07:43:48.328Z,31.52
2018-08-19T07:44:48.525Z,31.33
2018-08-19T07:45:48.535Z,30.97
2018-08-19T07:46:48.538Z,30.69
2018-08-19T07:47:48.542Z,30.34
2018-08-19T07:48:48.286Z,30.18
2018-08-19T07:49:48.547Z,29.77
2018-08-19T07:50:48.305Z,29.42
2018-08-19T07:51:48.394Z,29.14
2018-08-19T07:52:48.558Z,28.78
2018-08-19T07:53:48.309Z,28.24
2018-08-19T07:54:48.567Z,27.86
2018-08-19T07:55:48.573Z,27.65
2018-08-19T07:56:48.316Z,27.37
2018-08-19T07:57:48.322Z,26.97
2018-08-19T07:58:48.597Z,26.76
2018-08-19T07:59:48.328Z,26.53
2018-08-19T08:00:48.332Z,26.42
2018-08-19T08:01:48.338Z,26.2
2018-08-19T08:02:48.336Z,25.93
2018-08-19T08:03:48.600Z,25.71
2018-08-19T08:04:48.601Z,25.56
2018-08-19T08:05:48.609Z,25.45
2018-08-19T08:06:48.608Z,25.47
2018-08-19T08:07:48.368Z,25.32
2018-08-19T08:08:48.614Z,25.26
2018-08-19T08:09:48.623Z,25.14
2018-08-19T08:10:48.664Z,25.12
2018-08-19T08:11:48.626Z,25.01
2018-08-19T08:12:48.367Z,25.02
2018-08-19T08:13:48.811Z,25.02
2018-08-19T08:14:48.375Z,25.09
2018-08-19T08:15:48.383Z,25.17
2018-08-19T08:16:48.636Z,25.24
2018-08-19T08:17:48.388Z,25.32
2018-08-19T08:18:48.638Z,25.27
2018-08-19T08:19:48.644Z,25.32
2018-08-19T08:20:48.394Z,25.32
2018-08-19T08:21:48.510Z,25.41
2018-08-19T08:22:48.652Z,25.37
2018-08-19T08:23:48.657Z,25.44
2018-08-19T08:24:48.655Z,25.37
2018-08-19T08:25:48.660Z,25.24
2018-08-19T08:26:48.401Z,25.32
2018-08-19T08:27:48.407Z,25.3
2018-08-19T08:28:48.668Z,25.39
2018-08-19T08:29:48.667Z,25.45
2018-08-19T08:30:48.669Z,25.37
2018-08-19T08:31:48.672Z,25.52
2018-08-19T08:32:48.416Z,25.48
2018-08-19T08:33:48.675Z,25.59
2018-08-19T08:34:48.681Z,25.6
2018-08-19T08:35:48.680Z,25.67
2018-08-19T08:36:48.684Z,25.66
2018-08-19T08:37:48.687Z,25.64
2018-08-19T08:38:48.690Z,25.81
2018-08-19T08:39:48.438Z,25.81
2018-08-19T08:40:49.047Z,25.81
2018-08-19T08:41:48.698Z,25.79
2018-08-19T08:42:48.699Z,25.75
2018-08-19T08:43:48.442Z,25.81
2018-08-19T08:44:48.561Z,25.81
2018-08-19T08:45:48.447Z,25.88
2018-08-19T08:46:48.706Z,25.81
2018-08-19T08:47:49.397Z,25.79
2018-08-19T08:48:48.708Z,25.81
2018-08-19T08:49:48.718Z,25.93
2018-08-19T08:50:48.461Z,26.03
2018-08-19T08:51:48.463Z,26.15
2018-08-19T08:52:48.469Z,26.2
2018-08-19T08:53:48.476Z,26.04
2018-08-19T08:54:48.472Z,26.09
2018-08-19T08:55:48.484Z,26.11
2018-08-19T08:56:48.734Z,26.06
2018-08-19T08:57:48.477Z,26.06
2018-08-19T08:58:48.493Z,26.16
2018-08-19T08:59:48.482Z,26.31
2018-08-19T09:00:48.488Z,26.31
2018-08-19T09:01:48.491Z,26.31
2018-08-19T09:02:48.491Z,26.49
2018-08-19T09:03:48.760Z,26.52
2018-08-19T09:04:48.752Z,26.52
2018-08-19T09:05:48.761Z,26.49
2018-08-19T09:06:48.503Z,26.49
2018-08-19T09:07:48.767Z,26.49
2018-08-19T09:08:48.505Z,26.52
2018-08-19T09:09:48.513Z,26.61
2018-08-19T09:10:48.771Z,26.67
2018-08-19T09:11:48.519Z,26.67
2018-08-19T09:12:48.781Z,26.61
2018-08-19T09:13:48.529Z,26.68
2018-08-19T09:14:48.782Z,26.54
2018-08-19T09:15:48.524Z,26.61
2018-08-19T09:16:48.531Z,26.63
2018-08-19T09:17:48.797Z,26.78
2018-08-19T09:18:48.792Z,26.78
2018-08-19T09:19:48.792Z,26.81
2018-08-19T09:20:48.799Z,26.9
2018-08-19T09:21:48.543Z,26.91
2018-08-19T09:22:48.672Z,26.91
2018-08-19T09:23:48.548Z,26.97
2018-08-19T09:24:48.810Z,27.08
2018-08-19T09:25:48.557Z,27.12
2018-08-19T09:26:48.556Z,27.19
2018-08-19T09:27:48.821Z,27.16
2018-08-19T09:28:48.824Z,27.06
2018-08-19T09:29:48.823Z,27.11
2018-08-19T09:30:48.829Z,27.18
2018-08-19T09:31:48.573Z,27.23
2018-08-19T09:32:48.885Z,27.09
2018-08-19T09:33:48.844Z,27.23
2018-08-19T09:34:48.837Z,27.21
2018-08-19T09:35:48.849Z,27.24
2018-08-19T09:36:48.844Z,27.24
2018-08-19T09:37:48.339Z,27.12
2018-08-19T09:38:48.849Z,27.09
2018-08-19T09:39:48.862Z,27.28
2018-08-19T09:40:48.735Z,27.31
2018-08-19T09:41:48.859Z,27.45
2018-08-19T09:42:48.611Z,27.49
2018-08-19T09:43:48.872Z,27.43
2018-08-19T09:44:48.614Z,27.59
2018-08-19T09:45:48.873Z,27.69
2018-08-19T09:46:48.877Z,27.8
2018-08-19T09:47:49.393Z,28.01
2018-08-19T09:48:48.885Z,28.03
2018-08-19T09:49:48.629Z,28.03
2018-08-19T09:50:48.889Z,28.17
2018-08-19T09:51:48.897Z,28.16
2018-08-19T09:52:48.897Z,28.18
2018-08-19T09:53:48.901Z,28.21
2018-08-19T09:54:48.909Z,28.17
2018-08-19T09:55:48.915Z,28.17
2018-08-19T09:56:48.660Z,28.2
2018-08-19T09:57:48.922Z,28.28
2018-08-19T09:58:48.920Z,28.27
2018-08-19T09:59:48.937Z,28.39
2018-08-19T10:00:48.933Z,28.35
2018-08-19T10:01:48.931Z,28.31
2018-08-19T10:02:48.935Z,28.46
2018-08-19T10:03:48.938Z,28.41
2018-08-19T10:04:48.688Z,28.38
2018-08-19T10:05:48.689Z,28.3
2018-08-19T10:06:48.950Z,28.3
2018-08-19T10:07:49.172Z,28.27
2018-08-19T10:08:48.952Z,28.27
2018-08-19T10:09:48.706Z,28.26
2018-08-19T10:10:48.708Z,28.2
2018-08-19T10:11:48.721Z,28.05
2018-08-19T10:12:48.459Z,28.09
2018-08-19T10:13:49.200Z,28.05
2018-08-19T10:14:48.726Z,28.02
2018-08-19T10:15:48.726Z,28.03
2018-08-19T10:16:48.990Z,28.06
2018-08-19T10:17:48.822Z,28.02
2018-08-19T10:18:48.489Z,27.96
2018-08-19T10:19:48.746Z,27.99
2018-08-19T10:20:48.490Z,27.94
2018-08-19T10:21:48.752Z,27.96
2018-08-19T10:22:49.015Z,27.98
2018-08-19T10:23:49.013Z,27.91
2018-08-19T10:24:49.019Z,27.93
2018-08-19T10:25:49.030Z,28.16
2018-08-19T10:26:49.030Z,28.2
2018-08-19T10:27:49.027Z,28.23
2018-08-19T10:28:49.034Z,28.24
2018-08-19T10:29:48.781Z,28.11
2018-08-19T10:30:49.045Z,28.05
2018-08-19T10:31:48.793Z,28.09
2018-08-19T10:32:49.052Z,28.06
2018-08-19T10:33:49.053Z,28.08
2018-08-19T10:34:49.062Z,28.11
2018-08-19T10:35:48.556Z,28.21
2018-08-19T10:36:49.065Z,28.35
2018-08-19T10:37:49.073Z,28.43
2018-08-19T10:38:49.076Z,28.49
2018-08-19T10:39:48.563Z,28.45
2018-08-19T10:40:48.824Z,28.48
2018-08-19T10:41:49.085Z,28.36
2018-08-19T10:42:49.090Z,28.35
2018-08-19T10:43:48.844Z,28.26
2018-08-19T10:44:48.584Z,28.18
2018-08-19T10:45:49.103Z,28.14
2018-08-19T10:46:48.848Z,28.14
2018-08-19T10:47:49.113Z,28.17
2018-08-19T10:48:49.115Z,28.18
2018-08-19T10:49:49.122Z,28.06
2018-08-19T10:50:48.873Z,27.87
2018-08-19T10:51:48.865Z,27.75
2018-08-19T10:52:48.874Z,27.61
2018-08-19T10:53:49.138Z,27.37
2018-08-19T10:54:49.139Z,27.28
2018-08-19T10:55:48.911Z,27.23
2018-08-19T10:56:49.148Z,27.28
2018-08-19T10:57:49.152Z,27.46
2018-08-19T10:58:48.896Z,27.57
2018-08-19T10:59:49.238Z,27.74
2018-08-19T11:00:48.904Z,27.8
2018-08-19T11:01:49.167Z,28.06
2018-08-19T11:02:49.172Z,28.21
2018-08-19T11:03:49.173Z,28.21
2018-08-19T11:04:48.663Z,28.26
2018-08-19T11:05:49.178Z,28.38
2018-08-19T11:06:49.398Z,28.35
2018-08-19T11:07:49.190Z,28.33
2018-08-19T11:08:49.198Z,28.41
2018-08-19T11:09:49.197Z,28.57
2018-08-19T11:10:48.946Z,28.53
2018-08-19T11:11:48.949Z,28.53
2018-08-19T11:12:48.949Z,28.49
2018-08-19T11:13:48.956Z,28.49
2018-08-19T11:14:49.218Z,28.43
2018-08-19T11:15:48.966Z,28.46
2018-08-19T11:16:48.970Z,28.58
2018-08-19T11:17:49.228Z,28.51
2018-08-19T11:18:48.978Z,28.48
2018-08-19T11:19:49.235Z,28.31
2018-08-19T11:20:48.980Z,28.21
2018-08-19T11:21:49.250Z,28.24
2018-08-19T11:22:48.734Z,28.23
2018-08-19T11:23:48.738Z,28.3
2018-08-19T11:24:48.998Z,28.38
2018-08-19T11:25:48.745Z,28.54
2018-08-19T11:26:49.019Z,28.54
2018-08-19T11:27:49.012Z,28.79
2018-08-19T11:28:49.278Z,28.78
2018-08-19T11:29:49.017Z,28.86
2018-08-19T11:30:49.300Z,28.88
2018-08-19T11:31:49.028Z,28.95
2018-08-19T11:32:48.775Z,28.94
2018-08-19T11:33:49.149Z,28.88
2018-08-19T11:34:49.303Z,28.94
2018-08-19T11:35:49.311Z,28.98
2018-08-19T11:36:48.794Z,29.14
2018-08-19T11:37:49.055Z,29.06
2018-08-19T11:38:49.057Z,29.14
2018-08-19T11:39:49.066Z,29.01
2018-08-19T11:40:49.326Z,29.08
2018-08-19T11:41:49.074Z,29.2
2018-08-19T11:42:49.080Z,29.3
2018-08-19T11:43:49.094Z,29.43
2018-08-19T11:44:49.347Z,29.45
2018-08-19T11:45:49.090Z,29.58
2018-08-19T11:46:49.354Z,29.48
2018-08-19T11:47:48.848Z,29.29
2018-08-19T11:48:49.216Z,29.26
2018-08-19T11:49:49.370Z,29.11
2018-08-19T11:50:49.116Z,29.11
2018-08-19T11:51:49.124Z,28.98
2018-08-19T11:52:49.122Z,28.95
2018-08-19T11:53:48.870Z,28.97
2018-08-19T11:54:49.130Z,29.05
2018-08-19T11:55:49.396Z,28.94
2018-08-19T11:56:49.142Z,29.06
2018-08-19T11:57:49.148Z,29.23
2018-08-19T11:58:49.410Z,29.32
2018-08-19T11:59:49.417Z,29.4
2018-08-19T12:00:49.421Z,29.54
2018-08-19T12:01:49.427Z,29.6
2018-08-19T12:02:49.182Z,29.79
2018-08-19T12:03:49.187Z,29.94
2018-08-19T12:04:49.187Z,30.03
2018-08-19T12:05:49.456Z,30.11
2018-08-19T12:06:48.938Z,30.22
2018-08-19T12:07:49.198Z,30.21
2018-08-19T12:08:49.207Z,30.16
2018-08-19T12:09:49.854Z,30.02
2018-08-19T12:10:48.956Z,29.95
2018-08-19T12:11:49.478Z,29.98
2018-08-19T12:12:49.228Z,29.89
2018-08-19T12:13:49.235Z,29.88
2018-08-19T12:14:49.491Z,29.89
2018-08-19T12:15:49.240Z,29.81
2018-08-19T12:16:49.258Z,29.82
2018-08-19T12:17:49.509Z,29.76
2018-08-19T12:18:49.258Z,29.66
2018-08-19T12:19:49.521Z,29.6
2018-08-19T12:20:49.271Z,29.61
2018-08-19T12:21:49.278Z,29.61
2018-08-19T12:22:49.540Z,29.54
2018-08-19T12:23:49.287Z,29.58
2018-08-19T12:24:49.552Z,29.55
2018-08-19T12:25:49.297Z,29.55
2018-08-19T12:26:49.303Z,29.43
2018-08-19T12:27:49.883Z,29.45
2018-08-19T12:28:49.316Z,29.4
2018-08-19T12:29:49.589Z,29.48
2018-08-19T12:30:49.581Z,29.42
2018-08-19T12:31:49.330Z,29.4
2018-08-19T12:32:49.610Z,29.3
2018-08-19T12:33:49.338Z,29.24
2018-08-19T12:34:49.618Z,29.36
2018-08-19T12:35:49.360Z,29.39
2018-08-19T12:36:49.616Z,29.29
2018-08-19T12:37:49.618Z,29.33
2018-08-19T12:38:49.112Z,29.35
2018-08-19T12:39:49.376Z,29.42
2018-08-19T12:40:49.640Z,29.58
2018-08-19T12:41:49.644Z,29.7
2018-08-19T12:42:49.653Z,29.85
2018-08-19T12:43:49.394Z,30.04
2018-08-19T12:44:49.474Z,30.04
2018-08-19T12:45:49.666Z,30.21
2018-08-19T12:46:49.672Z,30.19
2018-08-19T12:47:49.423Z,30.16
2018-08-19T12:48:49.707Z,30.1
2018-08-19T12:49:49.687Z,30.03
2018-08-19T12:50:49.434Z,29.94
2018-08-19T12:51:49.183Z,29.87
2018-08-19T12:52:49.445Z,29.87
2018-08-19T12:53:49.711Z,29.87
2018-08-19T12:54:49.461Z,29.84
2018-08-19T12:55:49.573Z,29.89
2018-08-19T12:56:49.467Z,29.94